Cranfills Gap, Texas
Current Conditions -  °F | °C
As of 12:55 PM on Tuesday 27 Jan 2015 (Local Time) from KMNZ Reporting Station
Clear Clear  
Wind Chill: 76°   Ceiling: Unl
Heat Index: 76°   Visibility: 10mi
Dew Point: 35°   Wind: 8mph
Humidity: 23%   Direction: 100°E
Pressure: 30.19"   Gusts: NA
Location:  31.77°N, 97.83°W
Report Text: KMNZ 271855Z AUTO 10007KT 10SM CLR 24/02 A3019 RMK AO2 T02440019
Loading
Personal Weather Stations






























Interactive Weather Map New forecast layout! Learn more

10-Day Weather Forecast

Advertisements
Track Severe Weather on mobile